sensor_id;sensor_type;location;lat;lon;timestamp;temperature;humidity
28773;DHT22;15925;51.222;5.678;2023-08-30T00:00:39;14.60;99.90
28773;DHT22;15925;51.222;5.678;2023-08-30T00:03:04;14.50;99.90
28773;DHT22;15925;51.222;5.678;2023-08-30T00:05:32;14.60;99.90
28773;DHT22;15925;51.222;5.678;2023-08-30T00:07:57;14.60;99.90
28773;DHT22;15925;51.222;5.678;2023-08-30T00:10:23;14.60;99.90
28773;DHT22;15925;51.222;5.678;2023-08-30T00:12:49;14.60;99.90
28773;DHT22;15925;51.222;5.678;2023-08-30T00:15:15;14.60;99.90
28773;DHT22;15925;51.222;5.678;2023-08-30T00:17:41;14.60;99.90
28773;DHT22;15925;51.222;5.678;2023-08-30T00:20:08;14.60;99.90
28773;DHT22;15925;51.222;5.678;2023-08-30T00:22:35;14.60;99.90
28773;DHT22;15925;51.222;5.678;2023-08-30T00:25:01;14.60;99.90
28773;DHT22;15925;51.222;5.678;2023-08-30T00:27:27;14.60;99.90
28773;DHT22;15925;51.222;5.678;2023-08-30T00:29:53;14.70;99.90
28773;DHT22;15925;51.222;5.678;2023-08-30T00:32:19;14.60;99.90
28773;DHT22;15925;51.222;5.678;2023-08-30T00:34:44;14.50;99.90
28773;DHT22;15925;51.222;5.678;2023-08-30T00:37:10;14.60;99.90
28773;DHT22;15925;51.222;5.678;2023-08-30T00:39:39;14.60;99.90
28773;DHT22;15925;51.222;5.678;2023-08-30T00:42:06;14.60;99.90
28773;DHT22;15925;51.222;5.678;2023-08-30T00:44:34;14.60;99.90
28773;DHT22;15925;51.222;5.678;2023-08-30T00:47:02;14.70;99.90
28773;DHT22;15925;51.222;5.678;2023-08-30T00:49:31;14.70;99.90
28773;DHT22;15925;51.222;5.678;2023-08-30T00:52:00;14.70;99.90
28773;DHT22;15925;51.222;5.678;2023-08-30T00:54:27;14.70;99.90
28773;DHT22;15925;51.222;5.678;2023-08-30T00:56:54;14.80;99.90
28773;DHT22;15925;51.222;5.678;2023-08-30T00:59:20;14.80;99.90
28773;DHT22;15925;51.222;5.678;2023-08-30T01:01:46;14.80;99.90
28773;DHT22;15925;51.222;5.678;2023-08-30T01:04:12;14.80;99.90
28773;DHT22;15925;51.222;5.678;2023-08-30T01:06:38;14.80;99.90
28773;DHT22;15925;51.222;5.678;2023-08-30T01:09:05;14.80;99.90
28773;DHT22;15925;51.222;5.678;2023-08-30T01:11:43;14.80;99.90
28773;DHT22;15925;51.222;5.678;2023-08-30T01:14:25;14.80;99.90
28773;DHT22;15925;51.222;5.678;2023-08-30T01:16:55;14.80;99.90
28773;DHT22;15925;51.222;5.678;2023-08-30T01:22:21;14.70;99.90
28773;DHT22;15925;51.222;5.678;2023-08-30T01:25:15;14.70;99.90
28773;DHT22;15925;51.222;5.678;2023-08-30T01:27:42;14.70;99.90
28773;DHT22;15925;51.222;5.678;2023-08-30T01:30:09;14.70;99.90
28773;DHT22;15925;51.222;5.678;2023-08-30T01:32:37;14.70;99.90
28773;DHT22;15925;51.222;5.678;2023-08-30T01:35:04;14.70;99.90
28773;DHT22;15925;51.222;5.678;2023-08-30T01:37:32;14.70;99.90
28773;DHT22;15925;51.222;5.678;2023-08-30T01:40:02;14.70;99.90
28773;DHT22;15925;51.222;5.678;2023-08-30T01:42:31;14.60;99.90
28773;DHT22;15925;51.222;5.678;2023-08-30T01:44:58;14.60;99.90
28773;DHT22;15925;51.222;5.678;2023-08-30T01:47:27;14.60;99.90
28773;DHT22;15925;51.222;5.678;2023-08-30T01:49:55;14.60;99.90
28773;DHT22;15925;51.222;5.678;2023-08-30T01:52:23;14.60;99.90
28773;DHT22;15925;51.222;5.678;2023-08-30T01:54:52;14.60;99.90
28773;DHT22;15925;51.222;5.678;2023-08-30T01:57:21;14.60;99.90
28773;DHT22;15925;51.222;5.678;2023-08-30T01:59:47;14.60;99.90
28773;DHT22;15925;51.222;5.678;2023-08-30T02:02:12;14.60;99.90
28773;DHT22;15925;51.222;5.678;2023-08-30T02:04:38;14.60;99.90
28773;DHT22;15925;51.222;5.678;2023-08-30T02:07:12;14.60;99.90
28773;DHT22;15925;51.222;5.678;2023-08-30T02:09:40;14.60;99.90
28773;DHT22;15925;51.222;5.678;2023-08-30T02:12:13;14.60;99.90
28773;DHT22;15925;51.222;5.678;2023-08-30T02:14:45;14.70;99.90
28773;DHT22;15925;51.222;5.678;2023-08-30T02:17:14;14.70;99.90
28773;DHT22;15925;51.222;5.678;2023-08-30T02:19:40;14.60;99.90
28773;DHT22;15925;51.222;5.678;2023-08-30T02:22:06;14.60;99.90
28773;DHT22;15925;51.222;5.678;2023-08-30T02:24:31;14.70;99.90
28773;DHT22;15925;51.222;5.678;2023-08-30T02:26:57;14.70;99.90
28773;DHT22;15925;51.222;5.678;2023-08-30T02:29:23;14.70;99.90
28773;DHT22;15925;51.222;5.678;2023-08-30T02:31:49;14.70;99.90
28773;DHT22;15925;51.222;5.678;2023-08-30T02:34:15;14.80;99.90
28773;DHT22;15925;51.222;5.678;2023-08-30T02:36:41;14.70;99.90
28773;DHT22;15925;51.222;5.678;2023-08-30T02:39:07;14.80;99.90
28773;DHT22;15925;51.222;5.678;2023-08-30T02:41:33;14.80;99.90
28773;DHT22;15925;51.222;5.678;2023-08-30T02:44:00;14.80;99.90
28773;DHT22;15925;51.222;5.678;2023-08-30T02:46:26;14.80;99.90
28773;DHT22;15925;51.222;5.678;2023-08-30T02:48:51;14.80;99.90
28773;DHT22;15925;51.222;5.678;2023-08-30T02:51:17;14.80;99.90
28773;DHT22;15925;51.222;5.678;2023-08-30T02:53:43;14.90;99.90
28773;DHT22;15925;51.222;5.678;2023-08-30T02:56:09;14.90;99.90
28773;DHT22;15925;51.222;5.678;2023-08-30T02:58:34;14.90;99.90
28773;DHT22;15925;51.222;5.678;2023-08-30T03:01:01;14.90;99.90
28773;DHT22;15925;51.222;5.678;2023-08-30T03:03:28;14.90;99.90
28773;DHT22;15925;51.222;5.678;2023-08-30T03:05:54;14.90;99.90
28773;DHT22;15925;51.222;5.678;2023-08-30T03:08:20;14.90;99.90
28773;DHT22;15925;51.222;5.678;2023-08-30T03:10:46;14.90;99.90
28773;DHT22;15925;51.222;5.678;2023-08-30T03:13:12;14.90;99.90
28773;DHT22;15925;51.222;5.678;2023-08-30T03:15:38;15.00;99.90
28773;DHT22;15925;51.222;5.678;2023-08-30T03:18:04;15.00;99.90
28773;DHT22;15925;51.222;5.678;2023-08-30T03:20:30;15.00;99.90
28773;DHT22;15925;51.222;5.678;2023-08-30T03:22:56;15.00;99.90
28773;DHT22;15925;51.222;5.678;2023-08-30T03:25:23;15.00;99.90
28773;DHT22;15925;51.222;5.678;2023-08-30T03:27:49;15.00;99.90
28773;DHT22;15925;51.222;5.678;2023-08-30T03:30:15;15.00;99.90
28773;DHT22;15925;51.222;5.678;2023-08-30T03:32:42;15.00;99.90
28773;DHT22;15925;51.222;5.678;2023-08-30T03:35:10;15.00;99.90
28773;DHT22;15925;51.222;5.678;2023-08-30T03:37:36;15.00;99.90
28773;DHT22;15925;51.222;5.678;2023-08-30T03:40:02;15.10;99.90
28773;DHT22;15925;51.222;5.678;2023-08-30T03:42:30;15.10;99.90
28773;DHT22;15925;51.222;5.678;2023-08-30T03:44:56;15.10;99.90
28773;DHT22;15925;51.222;5.678;2023-08-30T03:47:21;15.10;99.90
28773;DHT22;15925;51.222;5.678;2023-08-30T03:49:47;15.10;99.90
28773;DHT22;15925;51.222;5.678;2023-08-30T03:52:13;15.10;99.90
28773;DHT22;15925;51.222;5.678;2023-08-30T03:54:39;15.10;99.90
28773;DHT22;15925;51.222;5.678;2023-08-30T03:57:05;15.10;99.90
28773;DHT22;15925;51.222;5.678;2023-08-30T03:59:31;15.10;99.90
28773;DHT22;15925;51.222;5.678;2023-08-30T04:01:58;15.10;99.90
28773;DHT22;15925;51.222;5.678;2023-08-30T04:04:24;15.20;99.90
28773;DHT22;15925;51.222;5.678;2023-08-30T04:06:50;15.10;99.90
28773;DHT22;15925;51.222;5.678;2023-08-30T04:09:16;15.20;99.90
28773;DHT22;15925;51.222;5.678;2023-08-30T04:11:43;15.20;99.90
28773;DHT22;15925;51.222;5.678;2023-08-30T04:14:09;15.20;99.90
28773;DHT22;15925;51.222;5.678;2023-08-30T04:16:35;15.20;99.90
28773;DHT22;15925;51.222;5.678;2023-08-30T04:19:01;15.20;99.90
28773;DHT22;15925;51.222;5.678;2023-08-30T04:21:27;15.20;99.90
28773;DHT22;15925;51.222;5.678;2023-08-30T04:23:53;15.20;99.90
28773;DHT22;15925;51.222;5.678;2023-08-30T04:26:18;15.20;99.90
28773;DHT22;15925;51.222;5.678;2023-08-30T04:28:44;15.20;99.90
28773;DHT22;15925;51.222;5.678;2023-08-30T04:31:10;15.20;99.90
28773;DHT22;15925;51.222;5.678;2023-08-30T04:33:36;15.20;99.90
28773;DHT22;15925;51.222;5.678;2023-08-30T04:36:03;15.20;99.90
28773;DHT22;15925;51.222;5.678;2023-08-30T04:38:29;15.20;99.90
28773;DHT22;15925;51.222;5.678;2023-08-30T04:40:57;15.20;99.90
28773;DHT22;15925;51.222;5.678;2023-08-30T04:43:25;15.20;99.90
28773;DHT22;15925;51.222;5.678;2023-08-30T04:45:51;15.20;99.90
28773;DHT22;15925;51.222;5.678;2023-08-30T04:48:16;15.20;99.90
28773;DHT22;15925;51.222;5.678;2023-08-30T04:50:43;15.20;99.90
28773;DHT22;15925;51.222;5.678;2023-08-30T04:53:09;15.20;99.90
28773;DHT22;15925;51.222;5.678;2023-08-30T04:55:35;15.20;99.90
28773;DHT22;15925;51.222;5.678;2023-08-30T04:58:01;15.20;99.90
28773;DHT22;15925;51.222;5.678;2023-08-30T05:00:32;15.20;99.90
28773;DHT22;15925;51.222;5.678;2023-08-30T05:02:57;15.20;99.90
28773;DHT22;15925;51.222;5.678;2023-08-30T05:05:23;15.20;99.90
28773;DHT22;15925;51.222;5.678;2023-08-30T05:07:49;15.20;99.90
28773;DHT22;15925;51.222;5.678;2023-08-30T05:10:15;15.30;99.90
28773;DHT22;15925;51.222;5.678;2023-08-30T05:12:41;15.30;99.90
28773;DHT22;15925;51.222;5.678;2023-08-30T05:15:10;15.30;99.90
28773;DHT22;15925;51.222;5.678;2023-08-30T05:17:36;15.20;99.90
28773;DHT22;15925;51.222;5.678;2023-08-30T05:20:02;15.20;99.90
28773;DHT22;15925;51.222;5.678;2023-08-30T05:22:28;15.20;99.90
28773;DHT22;15925;51.222;5.678;2023-08-30T05:24:54;15.20;99.90
28773;DHT22;15925;51.222;5.678;2023-08-30T05:27:20;15.30;99.90
28773;DHT22;15925;51.222;5.678;2023-08-30T05:29:47;15.20;99.90
28773;DHT22;15925;51.222;5.678;2023-08-30T05:32:13;15.30;99.90
28773;DHT22;15925;51.222;5.678;2023-08-30T05:34:51;15.30;99.90
28773;DHT22;15925;51.222;5.678;2023-08-30T05:37:26;15.30;99.90
28773;DHT22;15925;51.222;5.678;2023-08-30T05:40:15;15.30;99.90
28773;DHT22;15925;51.222;5.678;2023-08-30T05:42:42;15.30;99.90
28773;DHT22;15925;51.222;5.678;2023-08-30T05:45:08;15.30;99.90
28773;DHT22;15925;51.222;5.678;2023-08-30T05:47:34;15.40;99.90
28773;DHT22;15925;51.222;5.678;2023-08-30T05:50:03;15.40;99.90
28773;DHT22;15925;51.222;5.678;2023-08-30T05:52:29;15.40;99.90
28773;DHT22;15925;51.222;5.678;2023-08-30T05:54:55;15.40;99.90
28773;DHT22;15925;51.222;5.678;2023-08-30T05:57:21;15.40;99.90
28773;DHT22;15925;51.222;5.678;2023-08-30T05:59:49;15.40;99.90
28773;DHT22;15925;51.222;5.678;2023-08-30T06:02:15;15.40;99.90
28773;DHT22;15925;51.222;5.678;2023-08-30T06:04:41;15.50;99.90
28773;DHT22;15925;51.222;5.678;2023-08-30T06:07:06;15.50;99.90
28773;DHT22;15925;51.222;5.678;2023-08-30T06:09:33;15.60;99.90
28773;DHT22;15925;51.222;5.678;2023-08-30T06:11:59;15.60;99.90
28773;DHT22;15925;51.222;5.678;2023-08-30T06:14:25;15.60;99.90
28773;DHT22;15925;51.222;5.678;2023-08-30T06:16:51;15.60;99.90
28773;DHT22;15925;51.222;5.678;2023-08-30T06:19:17;15.60;99.90
28773;DHT22;15925;51.222;5.678;2023-08-30T06:21:43;15.60;99.90
28773;DHT22;15925;51.222;5.678;2023-08-30T06:24:09;15.60;99.90
28773;DHT22;15925;51.222;5.678;2023-08-30T06:26:35;15.60;99.90
28773;DHT22;15925;51.222;5.678;2023-08-30T06:29:00;15.60;99.90
28773;DHT22;15925;51.222;5.678;2023-08-30T06:31:26;15.60;99.90
28773;DHT22;15925;51.222;5.678;2023-08-30T06:33:54;15.60;99.90
28773;DHT22;15925;51.222;5.678;2023-08-30T06:36:20;15.60;99.90
28773;DHT22;15925;51.222;5.678;2023-08-30T06:38:48;15.70;99.90
28773;DHT22;15925;51.222;5.678;2023-08-30T06:41:14;15.70;99.90
28773;DHT22;15925;51.222;5.678;2023-08-30T06:43:40;15.80;99.90
28773;DHT22;15925;51.222;5.678;2023-08-30T06:46:05;15.80;99.90
28773;DHT22;15925;51.222;5.678;2023-08-30T06:48:31;15.80;99.90
28773;DHT22;15925;51.222;5.678;2023-08-30T06:50:58;15.80;99.90
28773;DHT22;15925;51.222;5.678;2023-08-30T06:53:27;15.80;99.90
28773;DHT22;15925;51.222;5.678;2023-08-30T06:56:00;15.90;99.90
28773;DHT22;15925;51.222;5.678;2023-08-30T06:58:26;15.90;99.90
28773;DHT22;15925;51.222;5.678;2023-08-30T07:00:53;15.90;99.90
28773;DHT22;15925;51.222;5.678;2023-08-30T07:03:19;15.80;99.90
28773;DHT22;15925;51.222;5.678;2023-08-30T07:05:45;15.80;99.90
28773;DHT22;15925;51.222;5.678;2023-08-30T07:08:14;15.80;99.90
28773;DHT22;15925;51.222;5.678;2023-08-30T07:10:40;15.80;99.90
28773;DHT22;15925;51.222;5.678;2023-08-30T07:13:06;15.80;99.90
28773;DHT22;15925;51.222;5.678;2023-08-30T07:15:36;15.90;99.90
28773;DHT22;15925;51.222;5.678;2023-08-30T07:18:02;15.80;99.90
28773;DHT22;15925;51.222;5.678;2023-08-30T07:20:29;15.80;99.90
28773;DHT22;15925;51.222;5.678;2023-08-30T07:22:55;15.80;99.90
28773;DHT22;15925;51.222;5.678;2023-08-30T07:25:20;15.90;99.90
28773;DHT22;15925;51.222;5.678;2023-08-30T07:27:46;15.80;99.90
28773;DHT22;15925;51.222;5.678;2023-08-30T07:30:12;15.80;99.90
28773;DHT22;15925;51.222;5.678;2023-08-30T07:32:38;15.80;99.90
28773;DHT22;15925;51.222;5.678;2023-08-30T07:35:04;15.70;99.90
28773;DHT22;15925;51.222;5.678;2023-08-30T07:37:31;15.70;99.90
28773;DHT22;15925;51.222;5.678;2023-08-30T07:39:56;15.70;99.90
28773;DHT22;15925;51.222;5.678;2023-08-30T07:42:22;15.70;99.90
28773;DHT22;15925;51.222;5.678;2023-08-30T07:44:48;15.70;99.90
28773;DHT22;15925;51.222;5.678;2023-08-30T07:47:14;15.70;99.90
28773;DHT22;15925;51.222;5.678;2023-08-30T07:49:41;15.70;99.90
28773;DHT22;15925;51.222;5.678;2023-08-30T07:52:07;15.70;99.90
28773;DHT22;15925;51.222;5.678;2023-08-30T07:54:37;15.80;99.90
28773;DHT22;15925;51.222;5.678;2023-08-30T07:57:03;15.80;99.90
28773;DHT22;15925;51.222;5.678;2023-08-30T07:59:29;15.80;99.90
28773;DHT22;15925;51.222;5.678;2023-08-30T08:01:55;15.90;99.90
28773;DHT22;15925;51.222;5.678;2023-08-30T08:04:21;15.90;99.90
28773;DHT22;15925;51.222;5.678;2023-08-30T08:06:47;15.90;99.90
28773;DHT22;15925;51.222;5.678;2023-08-30T08:09:13;15.90;99.90
28773;DHT22;15925;51.222;5.678;2023-08-30T08:11:39;16.00;99.90
28773;DHT22;15925;51.222;5.678;2023-08-30T08:14:10;15.90;99.90
28773;DHT22;15925;51.222;5.678;2023-08-30T08:16:37;15.90;99.90
28773;DHT22;15925;51.222;5.678;2023-08-30T08:19:03;15.90;99.90
28773;DHT22;15925;51.222;5.678;2023-08-30T08:21:29;15.90;99.90
28773;DHT22;15925;51.222;5.678;2023-08-30T08:23:55;15.90;99.90
28773;DHT22;15925;51.222;5.678;2023-08-30T08:26:20;15.90;99.90
28773;DHT22;15925;51.222;5.678;2023-08-30T08:28:46;15.90;99.90
28773;DHT22;15925;51.222;5.678;2023-08-30T08:31:12;16.00;99.90
28773;DHT22;15925;51.222;5.678;2023-08-30T08:33:37;15.90;99.90
28773;DHT22;15925;51.222;5.678;2023-08-30T08:36:04;15.90;99.90
28773;DHT22;15925;51.222;5.678;2023-08-30T08:38:29;16.00;99.90
28773;DHT22;15925;51.222;5.678;2023-08-30T08:41:02;15.90;99.90
28773;DHT22;15925;51.222;5.678;2023-08-30T08:43:35;15.90;99.90
28773;DHT22;15925;51.222;5.678;2023-08-30T08:46:03;15.90;99.90
28773;DHT22;15925;51.222;5.678;2023-08-30T08:48:33;15.90;99.90
28773;DHT22;15925;51.222;5.678;2023-08-30T08:51:03;15.90;99.90
28773;DHT22;15925;51.222;5.678;2023-08-30T08:53:30;15.90;99.90
28773;DHT22;15925;51.222;5.678;2023-08-30T08:55:58;15.90;99.90
28773;DHT22;15925;51.222;5.678;2023-08-30T08:58:24;15.90;99.90
28773;DHT22;15925;51.222;5.678;2023-08-30T09:00:50;16.00;99.90
28773;DHT22;15925;51.222;5.678;2023-08-30T09:03:18;16.00;99.90
28773;DHT22;15925;51.222;5.678;2023-08-30T09:05:45;16.00;99.90
28773;DHT22;15925;51.222;5.678;2023-08-30T09:08:12;16.00;99.90
28773;DHT22;15925;51.222;5.678;2023-08-30T09:10:39;16.00;99.90
28773;DHT22;15925;51.222;5.678;2023-08-30T09:13:06;16.00;99.90
28773;DHT22;15925;51.222;5.678;2023-08-30T09:15:35;16.00;99.90
28773;DHT22;15925;51.222;5.678;2023-08-30T09:18:04;16.00;99.90
28773;DHT22;15925;51.222;5.678;2023-08-30T09:20:30;16.00;99.90
28773;DHT22;15925;51.222;5.678;2023-08-30T09:22:56;16.00;99.90
28773;DHT22;15925;51.222;5.678;2023-08-30T09:25:26;16.00;99.90
28773;DHT22;15925;51.222;5.678;2023-08-30T09:27:59;16.00;99.90
28773;DHT22;15925;51.222;5.678;2023-08-30T09:30:25;16.10;99.90
28773;DHT22;15925;51.222;5.678;2023-08-30T09:32:51;16.00;99.90
28773;DHT22;15925;51.222;5.678;2023-08-30T09:35:17;16.10;99.90
28773;DHT22;15925;51.222;5.678;2023-08-30T09:37:46;16.00;99.90
28773;DHT22;15925;51.222;5.678;2023-08-30T09:40:17;16.10;99.90
28773;DHT22;15925;51.222;5.678;2023-08-30T09:42:43;16.10;99.90
28773;DHT22;15925;51.222;5.678;2023-08-30T09:45:39;16.10;99.90
28773;DHT22;15925;51.222;5.678;2023-08-30T09:48:08;16.10;99.90
28773;DHT22;15925;51.222;5.678;2023-08-30T09:50:35;16.20;99.90
28773;DHT22;15925;51.222;5.678;2023-08-30T09:53:07;16.20;99.90
28773;DHT22;15925;51.222;5.678;2023-08-30T09:55:35;16.20;99.90
28773;DHT22;15925;51.222;5.678;2023-08-30T09:58:04;16.30;99.90
28773;DHT22;15925;51.222;5.678;2023-08-30T10:00:33;16.20;99.90
28773;DHT22;15925;51.222;5.678;2023-08-30T10:02:59;16.20;99.90
28773;DHT22;15925;51.222;5.678;2023-08-30T10:05:29;16.20;99.90
28773;DHT22;15925;51.222;5.678;2023-08-30T10:07:56;16.20;99.90
28773;DHT22;15925;51.222;5.678;2023-08-30T10:10:23;16.30;99.90
28773;DHT22;15925;51.222;5.678;2023-08-30T10:12:49;16.40;99.90
28773;DHT22;15925;51.222;5.678;2023-08-30T10:15:15;16.40;99.90
28773;DHT22;15925;51.222;5.678;2023-08-30T10:17:45;16.30;99.90
28773;DHT22;15925;51.222;5.678;2023-08-30T10:20:12;16.30;99.90
28773;DHT22;15925;51.222;5.678;2023-08-30T10:22:40;16.30;99.90
28773;DHT22;15925;51.222;5.678;2023-08-30T10:25:10;16.40;99.90
28773;DHT22;15925;51.222;5.678;2023-08-30T10:27:38;16.40;99.90
28773;DHT22;15925;51.222;5.678;2023-08-30T10:30:06;16.50;99.90
28773;DHT22;15925;51.222;5.678;2023-08-30T10:32:39;16.50;99.90
28773;DHT22;15925;51.222;5.678;2023-08-30T10:35:05;16.50;99.90
28773;DHT22;15925;51.222;5.678;2023-08-30T10:37:31;16.60;99.90
28773;DHT22;15925;51.222;5.678;2023-08-30T10:40:00;16.60;99.90
28773;DHT22;15925;51.222;5.678;2023-08-30T10:42:29;16.70;99.90
28773;DHT22;15925;51.222;5.678;2023-08-30T10:45:03;16.80;99.90
28773;DHT22;15925;51.222;5.678;2023-08-30T10:47:32;16.80;99.90
28773;DHT22;15925;51.222;5.678;2023-08-30T10:50:05;16.90;99.90
28773;DHT22;15925;51.222;5.678;2023-08-30T10:52:32;17.10;99.90
28773;DHT22;15925;51.222;5.678;2023-08-30T10:55:09;17.10;99.90
28773;DHT22;15925;51.222;5.678;2023-08-30T10:57:35;17.20;99.90
28773;DHT22;15925;51.222;5.678;2023-08-30T11:00:09;17.30;99.90
28773;DHT22;15925;51.222;5.678;2023-08-30T11:02:38;17.30;99.90
28773;DHT22;15925;51.222;5.678;2023-08-30T11:05:08;17.30;99.90
28773;DHT22;15925;51.222;5.678;2023-08-30T11:07:35;17.30;99.90
28773;DHT22;15925;51.222;5.678;2023-08-30T11:10:01;17.30;99.90
28773;DHT22;15925;51.222;5.678;2023-08-30T11:12:29;17.30;99.90
28773;DHT22;15925;51.222;5.678;2023-08-30T11:14:56;17.30;99.90
28773;DHT22;15925;51.222;5.678;2023-08-30T11:17:22;17.20;99.90
28773;DHT22;15925;51.222;5.678;2023-08-30T11:19:56;17.30;99.90
28773;DHT22;15925;51.222;5.678;2023-08-30T11:22:23;17.30;99.90
28773;DHT22;15925;51.222;5.678;2023-08-30T11:24:49;17.40;99.90
28773;DHT22;15925;51.222;5.678;2023-08-30T11:27:18;17.40;99.90
28773;DHT22;15925;51.222;5.678;2023-08-30T11:29:44;17.40;99.90
28773;DHT22;15925;51.222;5.678;2023-08-30T11:32:10;17.50;99.90
28773;DHT22;15925;51.222;5.678;2023-08-30T11:34:36;17.50;99.90
28773;DHT22;15925;51.222;5.678;2023-08-30T11:37:02;17.50;99.90
28773;DHT22;15925;51.222;5.678;2023-08-30T11:39:28;17.50;99.90
28773;DHT22;15925;51.222;5.678;2023-08-30T11:41:54;17.50;99.90
28773;DHT22;15925;51.222;5.678;2023-08-30T11:44:23;17.50;99.90
28773;DHT22;15925;51.222;5.678;2023-08-30T11:46:48;17.50;99.90
28773;DHT22;15925;51.222;5.678;2023-08-30T11:49:15;17.40;99.90
28773;DHT22;15925;51.222;5.678;2023-08-30T11:51:42;17.50;99.90
28773;DHT22;15925;51.222;5.678;2023-08-30T11:54:08;17.50;99.90
28773;DHT22;15925;51.222;5.678;2023-08-30T11:56:35;17.50;99.90
28773;DHT22;15925;51.222;5.678;2023-08-30T11:59:01;17.60;99.90
28773;DHT22;15925;51.222;5.678;2023-08-30T12:01:29;17.50;99.90
28773;DHT22;15925;51.222;5.678;2023-08-30T12:03:55;17.50;99.90
28773;DHT22;15925;51.222;5.678;2023-08-30T12:06:23;17.40;99.90
28773;DHT22;15925;51.222;5.678;2023-08-30T12:08:57;17.40;99.90
28773;DHT22;15925;51.222;5.678;2023-08-30T12:11:23;17.50;99.90
28773;DHT22;15925;51.222;5.678;2023-08-30T12:13:49;17.50;99.90
28773;DHT22;15925;51.222;5.678;2023-08-30T12:16:17;17.50;99.90
28773;DHT22;15925;51.222;5.678;2023-08-30T12:18:43;17.60;99.90
28773;DHT22;15925;51.222;5.678;2023-08-30T12:21:09;17.60;99.90
28773;DHT22;15925;51.222;5.678;2023-08-30T12:23:35;17.70;99.90
28773;DHT22;15925;51.222;5.678;2023-08-30T12:26:05;17.60;99.90
28773;DHT22;15925;51.222;5.678;2023-08-30T12:28:41;17.60;99.90
28773;DHT22;15925;51.222;5.678;2023-08-30T12:31:10;17.60;99.90
28773;DHT22;15925;51.222;5.678;2023-08-30T12:33:37;17.60;99.90
28773;DHT22;15925;51.222;5.678;2023-08-30T12:36:03;17.70;99.90
28773;DHT22;15925;51.222;5.678;2023-08-30T12:38:29;17.70;99.90
28773;DHT22;15925;51.222;5.678;2023-08-30T12:40:56;17.70;99.90
28773;DHT22;15925;51.222;5.678;2023-08-30T12:43:22;17.80;99.90
28773;DHT22;15925;51.222;5.678;2023-08-30T12:45:49;17.80;99.90
28773;DHT22;15925;51.222;5.678;2023-08-30T12:48:16;17.70;99.90
28773;DHT22;15925;51.222;5.678;2023-08-30T12:50:44;17.70;99.90
28773;DHT22;15925;51.222;5.678;2023-08-30T12:53:10;17.80;99.90
28773;DHT22;15925;51.222;5.678;2023-08-30T12:55:36;17.70;99.90
28773;DHT22;15925;51.222;5.678;2023-08-30T12:58:09;17.80;99.90
28773;DHT22;15925;51.222;5.678;2023-08-30T13:00:35;17.80;99.90
28773;DHT22;15925;51.222;5.678;2023-08-30T13:03:01;17.70;99.90
28773;DHT22;15925;51.222;5.678;2023-08-30T13:05:29;17.80;99.90
28773;DHT22;15925;51.222;5.678;2023-08-30T13:07:58;17.80;99.90
28773;DHT22;15925;51.222;5.678;2023-08-30T13:10:24;17.70;99.90
28773;DHT22;15925;51.222;5.678;2023-08-30T13:12:50;17.70;99.90
28773;DHT22;15925;51.222;5.678;2023-08-30T13:15:16;17.50;99.90
28773;DHT22;15925;51.222;5.678;2023-08-30T13:17:42;17.50;99.90
28773;DHT22;15925;51.222;5.678;2023-08-30T13:20:08;17.60;99.90
28773;DHT22;15925;51.222;5.678;2023-08-30T13:22:34;17.50;99.90
28773;DHT22;15925;51.222;5.678;2023-08-30T13:25:00;17.60;99.90
28773;DHT22;15925;51.222;5.678;2023-08-30T13:27:26;17.60;99.90
28773;DHT22;15925;51.222;5.678;2023-08-30T13:29:52;17.60;99.90
28773;DHT22;15925;51.222;5.678;2023-08-30T13:32:17;17.60;99.90
28773;DHT22;15925;51.222;5.678;2023-08-30T13:34:43;17.60;99.90
28773;DHT22;15925;51.222;5.678;2023-08-30T13:37:11;17.60;99.90
28773;DHT22;15925;51.222;5.678;2023-08-30T13:39:39;17.70;99.90
28773;DHT22;15925;51.222;5.678;2023-08-30T13:42:04;17.80;99.90
28773;DHT22;15925;51.222;5.678;2023-08-30T13:44:30;17.70;99.90
28773;DHT22;15925;51.222;5.678;2023-08-30T13:46:57;17.70;99.90
28773;DHT22;15925;51.222;5.678;2023-08-30T13:49:23;17.80;99.90
28773;DHT22;15925;51.222;5.678;2023-08-30T13:51:49;17.80;99.90
28773;DHT22;15925;51.222;5.678;2023-08-30T13:54:15;17.90;99.90
28773;DHT22;15925;51.222;5.678;2023-08-30T13:56:41;18.00;99.90
28773;DHT22;15925;51.222;5.678;2023-08-30T13:59:09;18.10;99.90
28773;DHT22;15925;51.222;5.678;2023-08-30T14:01:35;18.10;99.90
28773;DHT22;15925;51.222;5.678;2023-08-30T14:04:01;18.20;99.90
28773;DHT22;15925;51.222;5.678;2023-08-30T14:06:30;18.30;99.90
28773;DHT22;15925;51.222;5.678;2023-08-30T14:08:56;18.30;99.90
28773;DHT22;15925;51.222;5.678;2023-08-30T14:11:22;18.30;99.90
28773;DHT22;15925;51.222;5.678;2023-08-30T14:13:48;18.40;99.90
28773;DHT22;15925;51.222;5.678;2023-08-30T14:16:14;18.20;99.90
28773;DHT22;15925;51.222;5.678;2023-08-30T14:18:40;18.10;99.90
28773;DHT22;15925;51.222;5.678;2023-08-30T14:21:06;18.20;99.90
28773;DHT22;15925;51.222;5.678;2023-08-30T14:23:32;18.20;99.90
28773;DHT22;15925;51.222;5.678;2023-08-30T14:26:03;18.20;99.90
28773;DHT22;15925;51.222;5.678;2023-08-30T14:28:37;18.30;99.90
28773;DHT22;15925;51.222;5.678;2023-08-30T14:31:03;18.40;99.90
28773;DHT22;15925;51.222;5.678;2023-08-30T14:33:31;18.50;99.90
28773;DHT22;15925;51.222;5.678;2023-08-30T14:35:57;18.60;99.90
28773;DHT22;15925;51.222;5.678;2023-08-30T14:38:23;18.70;99.90
28773;DHT22;15925;51.222;5.678;2023-08-30T14:40:56;18.80;99.90
28773;DHT22;15925;51.222;5.678;2023-08-30T14:43:22;18.80;99.90
28773;DHT22;15925;51.222;5.678;2023-08-30T14:45:48;18.80;99.90
28773;DHT22;15925;51.222;5.678;2023-08-30T14:48:14;18.90;99.90
28773;DHT22;15925;51.222;5.678;2023-08-30T14:50:40;19.00;99.90
28773;DHT22;15925;51.222;5.678;2023-08-30T14:53:05;19.00;99.90
28773;DHT22;15925;51.222;5.678;2023-08-30T14:55:32;19.00;99.90
28773;DHT22;15925;51.222;5.678;2023-08-30T14:57:58;19.00;99.90
28773;DHT22;15925;51.222;5.678;2023-08-30T15:00:25;18.90;99.90
28773;DHT22;15925;51.222;5.678;2023-08-30T15:02:51;18.70;99.90
28773;DHT22;15925;51.222;5.678;2023-08-30T15:05:18;18.60;99.90
28773;DHT22;15925;51.222;5.678;2023-08-30T15:07:43;18.40;99.90
28773;DHT22;15925;51.222;5.678;2023-08-30T15:10:09;18.30;99.90
28773;DHT22;15925;51.222;5.678;2023-08-30T15:12:39;18.30;99.90
28773;DHT22;15925;51.222;5.678;2023-08-30T15:15:05;18.20;99.90
28773;DHT22;15925;51.222;5.678;2023-08-30T15:17:31;18.10;99.90
28773;DHT22;15925;51.222;5.678;2023-08-30T15:19:57;18.10;99.90
28773;DHT22;15925;51.222;5.678;2023-08-30T15:22:22;18.10;99.90
28773;DHT22;15925;51.222;5.678;2023-08-30T15:24:48;18.20;99.90
28773;DHT22;15925;51.222;5.678;2023-08-30T15:27:14;18.20;99.90
28773;DHT22;15925;51.222;5.678;2023-08-30T15:29:40;18.30;99.90
28773;DHT22;15925;51.222;5.678;2023-08-30T15:32:05;18.20;99.90